Time;durP1;ratioP1;P1;durP2;ratioP2;P2;SDS_P1;SDS_P2;PMS_P1;PMS_P2;Temp;Humidity;BMP_temperature;BMP_pressure;BME280_temperature;BME280_humidity;BME280_pressure;Samples;Min_cycle;Max_cycle;Signal;HPM_P1;HPM_P2
2022/02/17 00:00:38;;;;;;;88.22;40.63;;;;;;;3.87;87.11;99643.59;1691213;83;20972;-75
2022/02/17 00:03:05;;;;;;;84.55;41.88;;;;;;;3.87;87.14;99648.35;1692000;84;22288;-75
2022/02/17 00:05:31;;;;;;;89.90;41.65;;;;;;;3.86;87.18;99645.38;1691941;84;21062;-75
2022/02/17 00:07:59;;;;;;;91.87;42.75;;;;;;;3.87;87.22;99632.67;1715121;83;20982;-75
2022/02/17 00:10:26;;;;;;;91.35;42.10;;;;;;;3.88;87.23;99632.20;1671793;84;20994;-74
2022/02/17 00:12:57;;;;;;;95.83;42.62;;;;;;;3.87;87.29;99628.76;1691936;84;21090;-75
2022/02/17 00:15:29;;;;;;;81.95;39.30;;;;;;;3.88;87.31;99623.90;1691935;84;21880;-75
2022/02/17 00:17:56;;;;;;;86.47;42.58;;;;;;;3.89;87.35;99617.73;1707961;83;20966;-75
2022/02/17 00:20:23;;;;;;;91.40;42.43;;;;;;;3.88;87.36;99617.84;1720797;83;21062;-75
2022/02/17 00:22:52;;;;;;;82.67;40.88;;;;;;;3.88;87.42;99621.28;1720829;83;21019;-75
2022/02/17 00:25:19;;;;;;;92.15;44.85;;;;;;;3.89;87.40;99611.20;1692802;83;21034;-74
2022/02/17 00:27:46;;;;;;;86.67;42.70;;;;;;;3.87;87.42;99605.25;1700416;83;21828;-75
2022/02/17 00:30:12;;;;;;;86.08;42.55;;;;;;;3.88;87.41;99603.00;1720782;83;20974;-75
2022/02/17 00:32:39;;;;;;;82.12;43.23;;;;;;;3.89;87.44;99592.08;1720915;83;21011;-75
2022/02/17 00:35:06;;;;;;;84.00;41.90;;;;;;;3.89;87.48;99586.39;1721075;83;21461;-75
2022/02/17 00:37:34;;;;;;;79.60;42.65;;;;;;;3.90;87.49;99577.61;1718846;83;21030;-75
2022/02/17 00:40:04;;;;;;;77.03;41.98;;;;;;;3.91;87.47;99574.06;1719965;83;21851;-75
2022/02/17 00:42:31;;;;;;;81.22;41.88;;;;;;;3.90;87.46;99571.08;1691936;84;21109;-74
2022/02/17 00:44:58;;;;;;;78.97;43.38;;;;;;;3.91;87.47;99565.38;1692283;84;20986;-75
2022/02/17 00:47:26;;;;;;;75.05;41.37;;;;;;;3.92;87.46;99552.69;1693526;83;21031;-75
2022/02/17 00:49:52;;;;;;;75.52;40.00;;;;;;;3.93;87.45;99553.89;1692274;84;21074;-75
2022/02/17 00:52:20;;;;;;;76.77;40.43;;;;;;;3.93;87.41;99547.36;1691927;84;21833;-75
2022/02/17 00:54:48;;;;;;;70.32;38.95;;;;;;;3.94;87.42;99550.34;1709110;83;20966;-75
2022/02/17 00:57:15;;;;;;;74.05;40.52;;;;;;;3.97;87.41;99549.32;1718058;83;21481;-75
2022/02/17 00:59:42;;;;;;;76.33;42.67;;;;;;;3.98;87.38;99545.30;1691880;84;21304;-75
2022/02/17 01:02:10;;;;;;;76.55;40.33;;;;;;;3.98;87.33;99532.23;1691999;83;20994;-74
2022/02/17 01:04:37;;;;;;;76.17;39.80;;;;;;;3.99;87.29;99531.77;1695632;83;21829;-74
2022/02/17 01:07:04;;;;;;;79.47;44.70;;;;;;;3.99;87.27;99529.98;1708248;83;21051;-75
2022/02/17 01:09:32;;;;;;;75.45;42.65;;;;;;;4.01;87.23;99512.42;1691872;84;21496;-74
2022/02/17 01:11:58;;;;;;;76.25;41.50;;;;;;;4.02;87.18;99508.03;1692003;84;21402;-74
2022/02/17 01:14:25;;;;;;;77.30;42.15;;;;;;;4.02;87.11;99502.34;1694486;83;21073;-74
2022/02/17 01:16:52;;;;;;;77.05;43.48;;;;;;;4.05;87.08;99496.53;1718738;83;21833;-74
2022/02/17 01:19:18;;;;;;;79.53;44.73;;;;;;;4.06;87.03;99491.70;1720724;83;20895;-74
2022/02/17 01:21:49;;;;;;;81.95;45.58;;;;;;;4.08;86.96;99488.52;1721027;83;20974;-74
2022/02/17 01:24:16;;;;;;;85.32;48.60;;;;;;;4.07;86.90;99477.22;1712804;83;21079;-75
2022/02/17 01:26:44;;;;;;;79.95;45.80;;;;;;;4.08;86.79;99478.89;1692173;84;21038;-74
2022/02/17 01:29:15;;;;;;;78.40;45.43;;;;;;;4.09;86.76;99476.64;1691727;83;22763;-74
2022/02/17 01:31:41;;;;;;;90.22;52.58;;;;;;;4.10;86.66;99464.41;1684218;83;21037;-74
2022/02/17 01:34:12;;;;;;;72.72;42.85;;;;;;;4.10;86.59;99453.48;1663662;85;21036;-73
2022/02/17 01:36:41;;;;;;;74.10;43.17;;;;;;;4.11;86.50;99456.47;1720165;82;21135;-73
2022/02/17 01:39:07;;;;;;;71.10;41.77;;;;;;;4.11;86.36;99458.25;1722702;83;20977;-74
2022/02/17 01:41:34;;;;;;;75.83;43.35;;;;;;;4.13;86.29;99451.13;1720750;83;21819;-73
2022/02/17 01:44:04;;;;;;;70.08;43.25;;;;;;;4.11;86.18;99448.62;1720289;83;21030;-74
2022/02/17 01:46:40;;;;;;;75.50;44.42;;;;;;;4.12;86.11;99446.38;1716244;83;21506;-74
2022/02/17 01:49:09;;;;;;;70.87;41.55;;;;;;;4.12;86.02;99439.01;1707583;83;21070;-74
2022/02/17 01:51:35;;;;;;;71.65;43.92;;;;;;;4.12;85.88;99438.53;1691948;84;21001;-74
2022/02/17 01:54:04;;;;;;;69.82;44.50;;;;;;;4.12;85.82;99418.94;1700039;83;21838;-74
2022/02/17 01:56:33;;;;;;;70.57;44.05;;;;;;;4.14;85.76;99420.14;1693719;83;21081;-74
2022/02/17 01:59:08;;;;;;;69.72;43.78;;;;;;;4.13;85.64;99407.54;1688352;84;21090;-74
2022/02/17 02:01:35;;;;;;;73.53;43.40;;;;;;;4.14;85.54;99406.59;1664745;84;21264;-74
2022/02/17 02:04:03;;;;;;;67.87;42.45;;;;;;;4.12;85.44;99393.28;1692042;84;21732;-74
2022/02/17 02:06:30;;;;;;;68.02;43.00;;;;;;;4.14;85.40;99404.45;1711113;83;22605;-73
2022/02/17 02:08:59;;;;;;;70.20;43.20;;;;;;;4.16;85.38;99406.52;1720864;81;21014;-74
2022/02/17 02:11:28;;;;;;;71.60;44.33;;;;;;;4.15;85.34;99397.84;1684528;84;21469;-74
2022/02/17 02:13:56;;;;;;;73.35;43.70;;;;;;;4.17;85.31;99392.03;1710915;83;20982;-74
2022/02/17 02:16:24;;;;;;;70.32;41.10;;;;;;;4.20;85.25;99388.37;1718766;83;21030;-74
2022/02/17 02:18:51;;;;;;;69.03;41.30;;;;;;;4.21;85.16;99389.56;1721124;83;22431;-74
2022/02/17 02:21:22;;;;;;;70.20;43.30;;;;;;;4.22;85.11;99376.02;1720887;83;21026;-74
2022/02/17 02:23:49;;;;;;;67.97;43.48;;;;;;;4.24;85.05;99374.13;1700917;83;21466;-75
2022/02/17 02:26:15;;;;;;;71.42;45.12;;;;;;;4.25;84.97;99366.68;1691989;84;21496;-74
2022/02/17 02:28:43;;;;;;;67.12;41.15;;;;;;;4.26;84.89;99361.81;1692023;83;21433;-74
2022/02/17 02:31:10;;;;;;;67.08;40.17;;;;;;;4.25;84.84;99359.67;1691987;84;21487;-75
2022/02/17 02:33:36;;;;;;;68.07;40.60;;;;;;;4.27;84.83;99361.70;1662821;86;20893;-74
2022/02/17 02:36:03;;;;;;;68.70;41.10;;;;;;;4.30;84.79;99350.19;1693973;83;21028;-74
2022/02/17 02:38:30;;;;;;;70.70;40.70;;;;;;;4.31;84.71;99365.77;1637729;86;21078;-74
2022/02/17 02:40:57;;;;;;;69.45;41.35;;;;;;;4.31;84.68;99351.86;1686575;84;21015;-74
2022/02/17 02:43:28;;;;;;;70.05;39.95;;;;;;;4.34;84.66;99350.80;1692155;84;21871;-74
2022/02/17 02:45:55;;;;;;;67.62;37.50;;;;;;;4.35;84.58;99357.73;1707612;83;21388;-74
2022/02/17 02:48:21;;;;;;;69.72;40.40;;;;;;;4.36;84.56;99350.25;1720951;82;21482;-75
2022/02/17 02:50:48;;;;;;;71.75;39.78;;;;;;;4.37;84.54;99342.77;1720866;82;21392;-75
2022/02/17 02:53:16;;;;;;;64.30;35.85;;;;;;;4.37;84.51;99334.92;1692459;83;21423;-75
2022/02/17 02:55:44;;;;;;;66.33;40.48;;;;;;;4.37;84.50;99326.61;1718806;82;21814;-75
2022/02/17 02:58:13;;;;;;;66.57;39.78;;;;;;;4.40;84.49;99317.23;1694882;83;20999;-75
2022/02/17 03:00:42;;;;;;;68.55;40.20;;;;;;;4.41;84.45;99308.44;1693736;84;20984;-75
2022/02/17 03:03:10;;;;;;;70.85;41.53;;;;;;;4.42;84.40;99304.05;1697160;84;21689;-75
2022/02/17 03:05:39;;;;;;;69.92;39.58;;;;;;;4.41;84.35;99303.21;1709909;83;20939;-74
2022/02/17 03:08:07;;;;;;;66.60;38.90;;;;;;;4.42;84.39;99297.03;1709841;84;21919;-74
2022/02/17 03:10:35;;;;;;;66.60;37.90;;;;;;;4.44;84.34;99294.30;1709779;84;21353;-74
2022/02/17 03:13:03;;;;;;;61.50;38.17;;;;;;;4.45;84.32;99301.23;1681258;84;21034;-74
2022/02/17 03:15:30;;;;;;;69.35;37.93;;;;;;;4.46;84.31;99296.36;1673713;85;21004;-74
2022/02/17 03:17:56;;;;;;;64.27;37.03;;;;;;;4.46;84.22;99288.05;1686753;84;21019;-74
2022/02/17 03:20:23;;;;;;;65.52;37.00;;;;;;;4.47;84.22;99295.41;1677981;84;21797;-74
2022/02/17 03:22:50;;;;;;;63.42;38.38;;;;;;;4.47;84.20;99293.63;1679155;84;21103;-74
2022/02/17 03:25:17;;;;;;;66.42;38.55;;;;;;;4.50;84.18;99286.87;1687570;84;20984;-74
2022/02/17 03:27:43;;;;;;;63.73;39.10;;;;;;;4.49;84.09;99277.36;1701724;84;21079;-74
2022/02/17 03:30:18;;;;;;;67.08;39.70;;;;;;;4.50;84.04;99297.80;1690873;84;21137;-74
2022/02/17 03:32:44;;;;;;;67.95;38.85;;;;;;;4.49;84.01;99295.66;1673486;84;21814;-74
2022/02/17 03:35:11;;;;;;;65.20;39.03;;;;;;;4.49;83.99;99294.83;1673639;85;21043;-74
2022/02/17 03:37:38;;;;;;;64.55;39.15;;;;;;;4.49;83.98;99296.13;1673562;85;21036;-74
2022/02/17 03:40:07;;;;;;;63.23;37.65;;;;;;;4.49;83.97;99285.20;1673524;85;21027;-74
2022/02/17 03:42:51;;;;;;;62.43;36.75;;;;;;;4.49;83.95;99286.98;1685042;84;21093;-74
2022/02/17 03:45:17;;;;;;;65.08;39.00;;;;;;;4.49;83.97;99281.75;1701757;84;21802;-74
2022/02/17 03:47:45;;;;;;;62.93;36.50;;;;;;;4.50;83.92;99282.11;1677499;84;20987;-74
2022/02/17 03:50:16;;;;;;;64.12;39.48;;;;;;;4.48;83.94;99280.92;1701583;84;21051;-74
2022/02/17 03:52:45;;;;;;;58.90;37.05;;;;;;;4.50;83.91;99284.73;1699354;84;20991;-74
2022/02/17 03:55:15;;;;;;;60.20;37.35;;;;;;;4.48;83.90;99278.30;1701466;84;21034;-74
2022/02/17 03:57:44;;;;;;;59.13;35.00;;;;;;;4.50;83.88;99284.25;1699866;83;21843;-74
2022/02/17 04:00:14;;;;;;;54.83;35.65;;;;;;;4.51;83.80;99270.23;1699573;83;21522;-74
2022/02/17 04:02:44;;;;;;;57.53;35.17;;;;;;;4.49;83.80;99268.20;1701995;83;21047;-74
2022/02/17 04:05:12;;;;;;;54.35;33.25;;;;;;;4.49;83.83;99249.91;1688000;84;21051;-75
2022/02/17 04:07:40;;;;;;;58.23;35.50;;;;;;;4.50;83.83;99243.73;1674078;85;20992;-74
2022/02/17 04:10:09;;;;;;;49.98;32.80;;;;;;;4.50;83.81;99250.27;1686852;84;22499;-75
2022/02/17 04:12:37;;;;;;;51.28;34.83;;;;;;;4.50;83.81;99237.19;1702110;84;20975;-75
2022/02/17 04:15:05;;;;;;;57.17;34.15;;;;;;;4.52;83.79;99239.69;1702211;84;21567;-75
2022/02/17 04:17:35;;;;;;;46.42;31.55;;;;;;;4.52;83.76;99230.06;1702191;84;21435;-75
2022/02/17 04:20:19;;;;;;;50.43;32.00;;;;;;;4.53;83.77;99215.20;1699951;84;20971;-75
2022/02/17 04:22:48;;;;;;;50.40;32.67;;;;;;;4.54;83.75;99215.12;1666087;84;22257;-75
2022/02/17 04:25:22;;;;;;;51.53;33.00;;;;;;;4.53;83.77;99202.96;1688730;84;21071;-74
2022/02/17 04:27:49;;;;;;;53.28;35.55;;;;;;;4.52;83.82;99205.22;1677153;84;21031;-75
2022/02/17 04:30:15;;;;;;;54.20;35.20;;;;;;;4.56;83.84;99206.68;1692473;84;20987;-75
2022/02/17 04:32:43;;;;;;;55.73;35.28;;;;;;;4.57;83.79;99193.13;1673950;85;21055;-75
2022/02/17 04:35:11;;;;;;;61.30;35.25;;;;;;;4.57;83.74;99190.05;1671749;85;22664;-74
2022/02/17 04:37:38;;;;;;;59.20;36.85;;;;;;;4.56;83.78;99190.99;1674077;85;20900;-74
2022/02/17 04:40:07;;;;;;;58.68;35.98;;;;;;;4.56;83.76;99189.69;1694791;84;21137;-74
2022/02/17 04:42:37;;;;;;;58.98;36.88;;;;;;;4.56;83.74;99193.61;1683288;85;20964;-74
2022/02/17 04:45:07;;;;;;;60.35;37.73;;;;;;;4.56;83.73;99196.70;1640750;86;21479;-74
2022/02/17 04:47:34;;;;;;;61.83;37.80;;;;;;;4.55;83.76;99191.94;1683587;85;21882;-74
2022/02/17 04:50:00;;;;;;;58.30;37.20;;;;;;;4.56;83.68;99198.00;1697024;83;21016;-74
2022/02/17 04:52:27;;;;;;;63.13;37.23;;;;;;;4.54;83.66;99161.98;1712172;83;21003;-74
2022/02/17 04:54:53;;;;;;;57.85;37.17;;;;;;;4.51;83.66;99178.71;1711934;83;21009;-74
2022/02/17 04:57:21;;;;;;;58.95;37.48;;;;;;;4.52;83.72;99179.07;1667846;84;21091;-74
2022/02/17 04:59:49;;;;;;;56.73;35.48;;;;;;;4.53;83.75;99194.28;1712159;83;22188;-74
2022/02/17 05:02:15;;;;;;;60.58;38.40;;;;;;;4.52;83.74;99172.53;1712453;83;21002;-74
2022/02/17 05:04:52;;;;;;;61.10;39.20;;;;;;;4.53;83.69;99163.73;1722277;83;21009;-74
2022/02/17 05:07:22;;;;;;;61.08;35.20;;;;;;;4.52;83.68;99159.45;1717481;83;21034;-74
2022/02/17 05:09:48;;;;;;;61.02;36.35;;;;;;;4.52;83.70;99169.09;1687464;84;21464;-73
2022/02/17 05:12:17;;;;;;;66.22;38.73;;;;;;;4.52;83.70;99173.84;1694922;83;21940;-74
2022/02/17 05:14:43;;;;;;;71.30;39.73;;;;;;;4.52;83.71;99154.70;1721022;83;21062;-74
2022/02/17 05:17:12;;;;;;;61.65;37.00;;;;;;;4.51;83.71;99163.03;1720551;83;21030;-74
2022/02/17 05:19:39;;;;;;;64.40;39.10;;;;;;;4.52;83.68;99159.45;1719043;83;21031;-74
2022/02/17 05:22:10;;;;;;;60.15;38.15;;;;;;;4.52;83.67;99148.17;1688002;83;21027;-74
2022/02/17 05:24:45;;;;;;;61.98;37.58;;;;;;;4.53;83.63;99158.52;1721052;83;22425;-74
2022/02/17 05:27:14;;;;;;;62.45;38.23;;;;;;;4.52;83.62;99158.16;1715461;83;21112;-74
2022/02/17 05:29:48;;;;;;;62.43;36.77;;;;;;;4.54;83.52;99144.52;1703427;81;21030;-74
2022/02/17 05:32:26;;;;;;;63.78;39.92;;;;;;;4.56;83.43;99149.63;1714477;83;21030;-74
2022/02/17 05:35:04;;;;;;;67.55;39.27;;;;;;;4.57;83.37;99140.83;1719275;83;21065;-73
2022/02/17 05:37:40;;;;;;;65.57;38.13;;;;;;;4.58;83.34;99138.09;1701670;83;22284;-74
2022/02/17 05:40:17;;;;;;;63.52;39.80;;;;;;;4.59;83.29;99141.07;1718565;83;20978;-74
2022/02/17 05:42:43;;;;;;;63.33;39.83;;;;;;;4.62;83.20;99127.40;1721081;83;21042;-74
2022/02/17 05:45:10;;;;;;;65.05;39.95;;;;;;;4.61;83.16;99117.41;1721216;83;20991;-74
2022/02/17 05:47:41;;;;;;;62.38;37.53;;;;;;;4.60;83.09;99122.28;1706769;83;21401;-74
2022/02/17 05:50:07;;;;;;;64.47;39.18;;;;;;;4.60;83.05;99120.98;1721026;83;21753;-73
2022/02/17 05:52:34;;;;;;;64.27;40.12;;;;;;;4.62;83.02;99131.32;1692225;83;21584;-74
2022/02/17 05:55:00;;;;;;;68.92;39.98;;;;;;;4.63;83.03;99121.22;1718861;83;21557;-73
2022/02/17 05:57:27;;;;;;;63.70;38.42;;;;;;;4.64;82.97;99115.90;1720949;83;21457;-74
2022/02/17 05:59:53;;;;;;;62.38;37.90;;;;;;;4.63;82.91;99108.97;1721347;83;21547;-74
2022/02/17 06:02:20;;;;;;;63.30;39.13;;;;;;;4.62;82.90;99117.77;1720916;83;22433;-75
2022/02/17 06:04:47;;;;;;;61.35;37.10;;;;;;;4.64;82.88;99118.98;1699445;83;20911;-74
2022/02/17 06:07:13;;;;;;;66.87;40.03;;;;;;;4.65;82.85;99115.42;1691991;84;21006;-74
2022/02/17 06:09:43;;;;;;;62.20;38.25;;;;;;;4.66;82.84;99117.92;1693707;83;21111;-74
2022/02/17 06:12:10;;;;;;;61.15;37.75;;;;;;;4.65;82.78;99118.87;1692060;83;20994;-74
2022/02/17 06:14:36;;;;;;;63.08;37.20;;;;;;;4.66;82.78;99112.69;1692063;84;21829;-74
2022/02/17 06:17:04;;;;;;;64.07;37.80;;;;;;;4.66;82.72;99117.09;1692300;83;21045;-74
2022/02/17 06:19:31;;;;;;;62.80;38.08;;;;;;;4.66;82.71;99110.55;1721012;83;21057;-74
2022/02/17 06:21:58;;;;;;;63.05;39.70;;;;;;;4.66;82.72;99095.69;1696978;83;20999;-75
2022/02/17 06:24:25;;;;;;;66.28;39.55;;;;;;;4.66;82.68;99082.61;1696604;83;21050;-74
2022/02/17 06:26:52;;;;;;;62.75;37.78;;;;;;;4.66;82.68;99074.77;1720860;83;22459;-74
2022/02/17 06:29:19;;;;;;;62.13;38.02;;;;;;;4.67;82.67;99074.28;1720883;83;20863;-74
2022/02/17 06:31:46;;;;;;;62.48;37.13;;;;;;;4.68;82.68;99068.11;1720868;83;21002;-74
2022/02/17 06:34:13;;;;;;;71.40;38.25;;;;;;;4.70;82.66;99064.89;1720807;83;21030;-74
2022/02/17 06:36:44;;;;;;;64.03;38.23;;;;;;;4.69;82.65;99049.67;1707250;81;21017;-74
2022/02/17 06:39:11;;;;;;;68.75;39.73;;;;;;;4.71;82.61;99057.40;1692606;83;21615;-74
2022/02/17 06:41:38;;;;;;;62.98;38.48;;;;;;;4.72;82.58;99062.98;1691948;84;20964;-74
2022/02/17 06:44:06;;;;;;;66.62;37.80;;;;;;;4.72;82.52;99055.97;1693780;84;20980;-74
2022/02/17 06:46:34;;;;;;;66.25;39.03;;;;;;;4.75;82.48;99051.00;1691976;84;21127;-73
2022/02/17 06:49:03;;;;;;;66.20;39.05;;;;;;;4.76;82.37;99048.27;1692914;83;21050;-74
2022/02/17 06:51:29;;;;;;;65.80;38.95;;;;;;;4.78;82.26;99046.84;1687597;84;22395;-74
2022/02/17 06:53:56;;;;;;;64.70;38.88;;;;;;;4.80;82.20;99042.31;1691921;83;21409;-73
2022/02/17 06:56:24;;;;;;;62.50;38.28;;;;;;;4.80;82.07;99040.53;1719805;83;20999;-74
2022/02/17 06:58:52;;;;;;;64.15;38.33;;;;;;;4.83;82.00;99043.41;1720826;82;21073;-74
2022/02/17 07:01:23;;;;;;;62.45;37.53;;;;;;;4.85;81.90;99044.11;1718373;83;21030;-74
2022/02/17 07:03:50;;;;;;;60.10;38.20;;;;;;;4.86;81.81;99035.31;1720733;83;22252;-74
2022/02/17 07:06:16;;;;;;;61.60;36.93;;;;;;;4.89;81.76;99036.38;1720868;83;20983;-74
2022/02/17 07:08:43;;;;;;;66.42;39.03;;;;;;;4.91;81.61;99037.08;1721047;83;21019;-75
2022/02/17 07:11:12;;;;;;;63.08;38.10;;;;;;;4.92;81.50;99033.51;1716271;83;21087;-75
2022/02/17 07:13:38;;;;;;;69.05;37.55;;;;;;;4.93;81.41;99023.43;1680787;84;21007;-75
2022/02/17 07:16:06;;;;;;;67.75;38.55;;;;;;;4.95;81.35;99012.84;1691929;84;22666;-74
2022/02/17 07:18:32;;;;;;;63.38;36.90;;;;;;;4.95;81.26;99009.75;1692029;84;21038;-73
2022/02/17 07:20:59;;;;;;;62.60;37.75;;;;;;;4.95;81.17;98987.50;1715722;83;20991;-74
2022/02/17 07:23:26;;;;;;;63.38;38.35;;;;;;;4.97;81.06;98971.20;1720929;83;20987;-74
2022/02/17 07:25:53;;;;;;;62.65;36.42;;;;;;;5.00;80.97;98966.20;1692495;83;21089;-75
2022/02/17 07:28:25;;;;;;;63.55;38.40;;;;;;;5.01;80.87;98969.99;1719360;83;21833;-75
2022/02/17 07:30:51;;;;;;;62.65;36.08;;;;;;;5.04;80.79;98971.08;1702086;83;20990;-74
2022/02/17 07:33:19;;;;;;;65.55;36.85;;;;;;;5.04;80.67;98971.08;1692056;84;21465;-73
2022/02/17 07:35:46;;;;;;;58.25;37.60;;;;;;;5.05;80.63;98980.59;1692265;84;21448;-74
2022/02/17 07:38:12;;;;;;;68.42;38.42;;;;;;;5.08;80.56;98965.95;1692181;84;21577;-74
2022/02/17 07:40:40;;;;;;;61.77;37.38;;;;;;;5.10;80.53;98958.80;1694429;83;22381;-74
2022/02/17 07:43:09;;;;;;;63.30;38.73;;;;;;;5.12;80.42;98956.09;1695042;83;20982;-74
2022/02/17 07:45:37;;;;;;;61.92;37.23;;;;;;;5.15;80.39;98954.53;1699500;83;20995;-74
2022/02/17 07:48:04;;;;;;;62.78;37.50;;;;;;;5.15;80.27;98952.73;1720825;83;21080;-74
2022/02/17 07:50:32;;;;;;;62.10;37.70;;;;;;;5.15;80.10;98946.20;1704847;83;20985;-74
2022/02/17 07:52:59;;;;;;;63.58;36.93;;;;;;;5.15;80.01;98951.91;1692164;84;22242;-73
2022/02/17 07:55:27;;;;;;;60.95;36.93;;;;;;;5.17;79.99;98940.35;1707060;81;21090;-75
2022/02/17 07:58:00;;;;;;;60.98;37.48;;;;;;;5.20;79.90;98944.98;1686387;85;21014;-75
2022/02/17 08:00:23;;;;;;;65.25;37.15;;;;;;;5.22;79.87;98941.80;1675962;85;21481;-74
2022/02/17 08:02:51;;;;;;;62.13;37.10;;;;;;;5.24;79.79;98938.56;1668377;85;21003;-74
2022/02/17 08:05:18;;;;;;;59.27;36.08;;;;;;;5.27;79.68;98938.31;1686308;85;21770;-76
2022/02/17 08:07:44;;;;;;;64.92;37.78;;;;;;;5.26;79.52;98920.47;1685809;85;21639;-75
2022/02/17 08:10:11;;;;;;;61.55;37.13;;;;;;;5.30;79.53;98919.73;1684646;85;21007;-74
2022/02/17 08:12:42;;;;;;;62.50;36.23;;;;;;;5.33;79.43;98918.19;1685463;85;21031;-75
2022/02/17 08:15:09;;;;;;;58.20;36.80;;;;;;;5.35;79.22;98908.42;1684721;85;21034;-74
2022/02/17 08:17:37;;;;;;;59.33;35.38;;;;;;;5.36;79.03;98906.98;1684265;85;21071;-74
2022/02/17 08:20:06;;;;;;;61.55;37.48;;;;;;;5.38;78.78;98901.62;1669586;85;21031;-74
2022/02/17 08:22:34;;;;;;;58.70;36.65;;;;;;;5.39;78.72;98891.02;1637334;86;21035;-74
2022/02/17 08:25:01;;;;;;;60.70;35.92;;;;;;;5.39;78.55;98888.39;1656393;86;21049;-74
2022/02/17 08:27:31;;;;;;;62.00;35.90;;;;;;;5.41;78.50;98885.67;1661390;85;21075;-74
2022/02/17 08:29:57;;;;;;;59.60;36.73;;;;;;;5.42;78.38;98886.03;1656937;85;21845;-75
2022/02/17 08:32:25;;;;;;;58.17;36.33;;;;;;;5.42;78.32;98879.00;1655974;86;21010;-75
2022/02/17 08:34:53;;;;;;;56.13;35.75;;;;;;;5.46;78.37;98863.86;1637173;86;21015;-75
2022/02/17 08:37:20;;;;;;;57.75;36.23;;;;;;;5.49;78.34;98862.77;1670698;85;21003;-74
2022/02/17 08:39:47;;;;;;;59.10;36.75;;;;;;;5.51;78.22;98854.33;1681257;83;20983;-75
2022/02/17 08:42:14;;;;;;;53.58;35.45;;;;;;;5.53;78.15;98856.34;1683593;85;21853;-74
2022/02/17 08:44:41;;;;;;;55.12;33.13;;;;;;;5.52;77.94;98852.06;1683510;85;20904;-74
2022/02/17 08:47:08;;;;;;;53.78;34.98;;;;;;;5.52;77.78;98845.52;1679855;85;21051;-74
2022/02/17 08:49:35;;;;;;;53.98;35.55;;;;;;;5.53;77.71;98836.70;1668190;85;21077;-75
2022/02/17 08:52:01;;;;;;;52.78;34.83;;;;;;;5.54;77.63;98831.33;1683746;85;21062;-75
2022/02/17 08:54:28;;;;;;;60.90;37.25;;;;;;;5.57;77.67;98838.92;1682587;85;22268;-75
2022/02/17 08:56:55;;;;;;;55.83;36.58;;;;;;;5.61;77.75;98823.31;1676986;85;21067;-74
2022/02/17 08:59:21;;;;;;;54.42;33.33;;;;;;;5.64;77.71;98823.53;1671851;85;21072;-74
2022/02/17 09:01:48;;;;;;;50.00;33.73;;;;;;;5.65;77.53;98819.47;1674292;85;21035;-75
2022/02/17 09:04:14;;;;;;;57.03;33.05;;;;;;;5.62;77.28;98814.50;1674355;85;20979;-74
2022/02/17 09:06:41;;;;;;;46.85;31.17;;;;;;;5.58;77.18;98814.39;1674403;85;21835;-74
2022/02/17 09:09:08;;;;;;;47.10;30.62;;;;;;;5.56;77.09;98799.77;1671828;85;21020;-74
2022/02/17 09:11:35;;;;;;;50.40;33.28;;;;;;;5.54;77.08;98798.59;1656302;85;21055;-74
2022/02/17 09:14:02;;;;;;;49.53;32.33;;;;;;;5.52;77.05;98801.83;1646964;87;21012;-75
2022/02/17 09:16:28;;;;;;;45.73;31.57;;;;;;;5.55;77.12;98803.34;1647035;87;21044;-75
2022/02/17 09:18:55;;;;;;;47.65;32.80;;;;;;;5.56;77.17;98808.45;1648481;85;21857;-75
2022/02/17 09:21:23;;;;;;;47.25;27.90;;;;;;;5.57;77.22;98799.63;1647012;87;20928;-74
2022/02/17 09:23:51;;;;;;;47.45;31.12;;;;;;;5.57;77.16;98794.88;1647010;86;21000;-75
2022/02/17 09:26:19;;;;;;;46.68;29.40;;;;;;;5.56;77.16;98777.03;1646957;87;21483;-74
2022/02/17 09:28:48;;;;;;;43.45;29.42;;;;;;;5.58;77.06;98778.20;1653182;85;21087;-74
2022/02/17 09:31:22;;;;;;;48.35;29.72;;;;;;;5.59;77.06;98781.99;1671541;85;22210;-74
2022/02/17 09:33:50;;;;;;;49.03;30.40;;;;;;;5.60;76.99;98779.75;1674622;85;21481;-75
2022/02/17 09:36:17;;;;;;;42.85;25.95;;;;;;;5.63;76.93;98771.63;1674042;85;21090;-75
2022/02/17 09:38:44;;;;;;;41.35;27.82;;;;;;;5.65;76.86;98747.44;1674292;85;21004;-74
2022/02/17 09:41:14;;;;;;;40.55;26.85;;;;;;;5.67;76.69;98735.52;1671906;85;20995;-74
2022/02/17 09:43:40;;;;;;;41.10;26.52;;;;;;;5.70;76.64;98728.24;1674309;85;21875;-74
2022/02/17 09:46:06;;;;;;;39.58;27.73;;;;;;;5.73;76.49;98720.59;1650782;85;21084;-74
2022/02/17 09:48:33;;;;;;;41.85;27.67;;;;;;;5.73;76.38;98718.80;1647341;85;21063;-74
2022/02/17 09:50:59;;;;;;;41.73;28.00;;;;;;;5.73;76.38;98716.19;1664354;85;21052;-74
2022/02/17 09:53:25;;;;;;;43.75;29.32;;;;;;;5.74;76.52;98712.60;1668271;85;21093;-74
2022/02/17 09:55:52;;;;;;;43.63;29.10;;;;;;;5.75;76.60;98701.64;1656876;85;21823;-75
2022/02/17 09:58:18;;;;;;;42.23;28.98;;;;;;;5.74;76.52;98686.41;1646945;87;21043;-75
2022/02/17 10:00:47;;;;;;;43.50;28.85;;;;;;;5.74;76.53;98684.27;1646946;87;21067;-75
2022/02/17 10:03:28;;;;;;;40.52;28.15;;;;;;;5.72;76.55;98687.50;1654071;85;21052;-74
2022/02/17 10:06:12;;;;;;;41.98;27.55;;;;;;;5.69;76.59;98689.92;1674400;85;21004;-75
2022/02/17 10:08:40;;;;;;;42.70;27.02;;;;;;;5.69;76.62;98682.51;1674353;85;21850;-75
2022/02/17 10:11:11;;;;;;;38.33;25.23;;;;;;;5.68;76.46;98676.92;1672218;85;21043;-75
2022/02/17 10:13:37;;;;;;;40.63;27.05;;;;;;;5.71;76.42;98685.85;1671517;85;21537;-75
2022/02/17 10:16:05;;;;;;;39.88;25.82;;;;;;;5.73;76.33;98675.58;1674351;85;21003;-74
2022/02/17 10:18:32;;;;;;;39.10;26.62;;;;;;;5.75;76.28;98669.72;1653929;85;20984;-74
2022/02/17 10:21:09;;;;;;;38.38;26.75;;;;;;;5.80;76.34;98669.34;1628071;85;21492;-75
2022/02/17 10:23:46;;;;;;;37.75;26.27;;;;;;;5.86;76.48;98664.03;1674448;85;21071;-75
2022/02/17 10:26:17;;;;;;;38.02;25.20;;;;;;;5.92;76.37;98663.53;1673932;85;20980;-75
2022/02/17 10:29:01;;;;;;;43.73;27.17;;;;;;;5.95;76.25;98646.22;1672202;85;20991;-74
2022/02/17 10:31:35;;;;;;;41.02;26.12;;;;;;;5.98;76.23;98639.39;1674305;85;21054;-74
2022/02/17 10:34:03;;;;;;;43.28;28.90;;;;;;;5.97;76.02;98623.33;1674498;85;21843;-75
2022/02/17 10:36:44;;;;;;;40.00;26.48;;;;;;;6.02;76.02;98625.08;1660461;85;21031;-74
2022/02/17 10:39:22;;;;;;;37.70;24.32;;;;;;;6.03;75.92;98607.90;1647240;86;21032;-75
2022/02/17 10:41:57;;;;;;;38.38;25.00;;;;;;;6.05;75.76;98598.58;1647008;87;21058;-75
2022/02/17 10:44:36;;;;;;;34.83;24.02;;;;;;;6.10;75.74;98596.40;1647252;87;20996;-75
2022/02/17 10:47:17;;;;;;;37.55;25.35;;;;;;;6.15;75.61;98586.31;1632547;87;21914;-75
2022/02/17 10:49:51;;;;;;;32.63;22.30;;;;;;;6.18;75.44;98565.09;1646878;87;21023;-75
2022/02/17 10:52:36;;;;;;;37.55;24.15;;;;;;;6.25;75.28;98571.41;1647564;85;21090;-75
2022/02/17 10:55:15;;;;;;;32.25;23.35;;;;;;;6.30;75.17;98563.97;1622422;87;21574;-75
2022/02/17 10:57:42;;;;;;;33.33;22.05;;;;;;;6.35;74.97;98558.78;1655535;85;21011;-75
2022/02/17 11:00:21;;;;;;;33.58;23.27;;;;;;;6.38;74.57;98555.91;1673019;85;22345;-75
2022/02/17 11:02:50;;;;;;;34.78;24.43;;;;;;;6.41;74.51;98550.37;1685980;85;21019;-75
2022/02/17 11:05:18;;;;;;;32.83;22.82;;;;;;;6.45;74.71;98542.06;1686023;85;21351;-75
2022/02/17 11:07:46;;;;;;;35.70;22.37;;;;;;;6.48;74.49;98531.80;1671343;85;21086;-75
2022/02/17 11:10:13;;;;;;;30.88;22.02;;;;;;;6.48;74.30;98517.38;1659232;85;21031;-75
2022/02/17 11:12:41;;;;;;;33.10;23.07;;;;;;;6.47;74.28;98524.42;1658283;86;21841;-75
2022/02/17 11:15:09;;;;;;;33.20;21.95;;;;;;;6.49;74.21;98508.05;1633770;86;21062;-76
2022/02/17 11:17:39;;;;;;;34.08;22.98;;;;;;;6.54;74.09;98497.94;1659946;85;21189;-75
2022/02/17 11:20:17;;;;;;;30.65;22.07;;;;;;;6.58;74.09;98504.58;1663112;85;21137;-75
2022/02/17 11:22:44;;;;;;;34.58;22.80;;;;;;;6.60;74.10;98488.70;1658278;86;20987;-75
2022/02/17 11:25:11;;;;;;;34.35;22.10;;;;;;;6.66;74.18;98489.45;1670177;85;22257;-74
2022/02/17 11:28:04;;;;;;;29.67;20.43;;;;;;;6.72;73.99;98484.92;1642113;86;21082;-75
2022/02/17 11:30:33;;;;;;;27.90;18.62;;;;;;;6.81;73.86;98477.50;1658391;86;21055;-75